Time,TemperatureF,DewpointF,PressureIn,WindDirection,WindDirectionDegrees,WindSpeedMPH,WindSpeedGustMPH,Humidity,HourlyPrecipIn,Conditions,Clouds,dailyrainin,SolarRadiationWatts/m^2,SoftwareType,DateUTC
2013-01-29 00:07:00,50.5,29.0,30.44,NNW,344,0.0,-999.0,43,-99.99,,,0.00,0,weatherlink.com 1.10,2013-01-29 08:07:00,
2013-01-29 00:22:00,49.4,30.0,30.44,NNW,344,0.0,-999.0,48,-99.99,,,0.00,0,weatherlink.com 1.10,2013-01-29 08:22:00,
2013-01-29 00:37:00,47.5,31.0,30.44,NNW,344,0.0,-999.0,54,-99.99,,,0.00,0,weatherlink.com 1.10,2013-01-29 08:37:00,
2013-01-29 00:52:00,45.7,31.0,30.45,NNW,344,0.0,-999.0,56,-99.99,,,0.00,0,weatherlink.com 1.10,2013-01-29 08:52:00,
2013-01-29 01:07:00,45.0,31.0,30.44,NNW,344,0.0,-999.0,59,-99.99,,,0.00,0,weatherlink.com 1.10,2013-01-29 09:07:00,
2013-01-29 01:22:00,44.4,32.0,30.44,NNW,344,0.0,-999.0,61,-99.99,,,0.00,0,weatherlink.com 1.10,2013-01-29 09:22:00,
2013-01-29 01:37:00,45.1,29.0,30.44,NNW,344,0.0,-999.0,54,-99.99,,,0.00,0,weatherlink.com 1.10,2013-01-29 09:37:00,
2013-01-29 01:52:00,46.3,29.0,30.44,NNW,344,0.0,-999.0,51,-99.99,,,0.00,0,weatherlink.com 1.10,2013-01-29 09:52:00,
2013-01-29 02:07:00,46.2,30.0,30.44,NNW,344,0.0,-999.0,54,-99.99,,,0.00,0,weatherlink.com 1.10,2013-01-29 10:07:00,
2013-01-29 02:22:00,44.8,31.0,30.43,NNW,344,0.0,-999.0,58,-99.99,,,0.00,0,weatherlink.com 1.10,2013-01-29 10:22:00,
2013-01-29 02:37:00,43.5,31.0,30.43,NNW,344,0.0,-999.0,62,-99.99,,,0.00,0,weatherlink.com 1.10,2013-01-29 10:37:00,
2013-01-29 02:52:00,42.6,32.0,30.43,NNW,344,0.0,-999.0,66,-99.99,,,0.00,0,weatherlink.com 1.10,2013-01-29 10:52:00,
2013-01-29 03:07:00,42.0,32.0,30.43,NNW,344,0.0,-999.0,67,-99.99,,,0.00,0,weatherlink.com 1.10,2013-01-29 11:07:00,
2013-01-29 03:22:00,41.6,32.0,30.43,NNW,344,0.0,-999.0,68,-99.99,,,0.00,0,weatherlink.com 1.10,2013-01-29 11:22:00,
2013-01-29 03:38:00,41.4,31.0,30.44,NNW,344,0.0,-999.0,66,-99.99,,,0.00,0,weatherlink.com 1.10,2013-01-29 11:38:00,
2013-01-29 03:53:00,41.3,31.0,30.44,NNW,344,0.0,-999.0,68,-99.99,,,0.00,0,weatherlink.com 1.10,2013-01-29 11:53:00,
2013-01-29 04:08:00,40.8,32.0,30.43,NNW,344,0.0,-999.0,70,-99.99,,,0.00,0,weatherlink.com 1.10,2013-01-29 12:08:00,
2013-01-29 04:23:00,40.7,31.0,30.43,NNW,344,0.0,-999.0,69,-99.99,,,0.00,0,weatherlink.com 1.10,2013-01-29 12:23:00,
2013-01-29 04:38:00,40.5,31.0,30.42,NNW,344,0.0,-999.0,70,-99.99,,,0.00,0,weatherlink.com 1.10,2013-01-29 12:38:00,
2013-01-29 04:53:00,40.0,32.0,30.43,NNW,344,0.0,-999.0,72,-99.99,,,0.00,0,weatherlink.com 1.10,2013-01-29 12:53:00,
2013-01-29 05:08:00,39.6,31.0,30.43,NNW,344,0.0,-999.0,72,-99.99,,,0.00,0,weatherlink.com 1.10,2013-01-29 13:08:00,
2013-01-29 05:23:00,39.3,31.0,30.44,NNW,344,0.0,-999.0,73,-99.99,,,0.00,0,weatherlink.com 1.10,2013-01-29 13:23:00,
2013-01-29 05:38:00,39.1,32.0,30.45,NNW,344,0.0,-999.0,75,-99.99,,,0.00,0,weatherlink.com 1.10,2013-01-29 13:38:00,
2013-01-29 05:53:00,39.3,32.0,30.45,NNW,344,0.0,-999.0,76,-99.99,,,0.00,0,weatherlink.com 1.10,2013-01-29 13:53:00,
2013-01-29 06:08:00,39.4,32.0,30.45,NNW,344,0.0,-999.0,74,-99.99,,,0.00,0,weatherlink.com 1.10,2013-01-29 14:08:00,
2013-01-29 06:23:00,39.5,32.0,30.45,NNW,344,0.0,-999.0,73,-99.99,,,0.00,0,weatherlink.com 1.10,2013-01-29 14:23:00,
2013-01-29 06:38:00,39.3,32.0,30.44,NNW,344,0.0,-999.0,74,-99.99,,,0.00,0,weatherlink.com 1.10,2013-01-29 14:38:00,
2013-01-29 06:53:00,39.3,32.0,30.45,NNW,342,0.0,-999.0,74,-99.99,,,0.00,12,weatherlink.com 1.10,2013-01-29 14:53:00,
2013-01-29 07:08:00,40.4,32.0,30.45,NNW,342,0.0,-999.0,72,-99.99,,,0.00,25,weatherlink.com 1.10,2013-01-29 15:08:00,
2013-01-29 07:23:00,42.1,32.0,30.46,NNW,342,0.0,-999.0,68,-99.99,,,0.00,65,weatherlink.com 1.10,2013-01-29 15:23:00,
2013-01-29 07:38:00,43.5,33.0,30.46,NNW,343,0.0,-999.0,66,-99.99,,,0.00,86,weatherlink.com 1.10,2013-01-29 15:38:00,
2013-01-29 07:53:00,44.4,32.0,30.47,NNW,343,0.0,-999.0,63,-99.99,,,0.00,141,weatherlink.com 1.10,2013-01-29 15:53:00,
2013-01-29 08:08:00,45.3,33.0,30.47,NNW,343,0.0,-999.0,63,-99.99,,,0.00,192,weatherlink.com 1.10,2013-01-29 16:08:00,
2013-01-29 08:23:00,46.6,34.0,30.47,NNW,343,0.0,-999.0,61,-99.99,,,0.00,230,weatherlink.com 1.10,2013-01-29 16:23:00,
2013-01-29 08:38:00,48.2,34.0,30.47,NNW,343,0.0,-999.0,58,-99.99,,,0.00,264,weatherlink.com 1.10,2013-01-29 16:38:00,
2013-01-29 08:53:00,50.0,34.0,30.47,NNW,343,0.0,-999.0,54,-99.99,,,0.00,323,weatherlink.com 1.10,2013-01-29 16:53:00,
2013-01-29 09:08:00,52.0,32.0,30.47,NNW,343,0.0,-999.0,46,-99.99,,,0.00,330,weatherlink.com 1.10,2013-01-29 17:08:00,
2013-01-29 09:23:00,53.6,33.0,30.47,NNW,343,1.0,-999.0,46,-99.99,,,0.00,387,weatherlink.com 1.10,2013-01-29 17:23:00,
2013-01-29 09:38:00,54.6,32.0,30.47,NNW,342,0.0,-999.0,42,-99.99,,,0.00,417,weatherlink.com 1.10,2013-01-29 17:38:00,
2013-01-29 09:53:00,55.9,32.0,30.47,NNW,342,0.0,-999.0,40,-99.99,,,0.00,510,weatherlink.com 1.10,2013-01-29 17:53:00,
2013-01-29 10:08:00,57.0,33.0,30.47,NNW,343,0.0,-999.0,40,-99.99,,,0.00,526,weatherlink.com 1.10,2013-01-29 18:08:00,
2013-01-29 10:24:00,58.2,31.0,30.47,NNW,343,0.0,-999.0,36,-99.99,,,0.00,529,weatherlink.com 1.10,2013-01-29 18:24:00,
2013-01-29 10:39:00,59.5,32.0,30.47,NNW,343,0.0,-999.0,35,-99.99,,,0.00,568,weatherlink.com 1.10,2013-01-29 18:39:00,
2013-01-29 10:54:00,60.1,31.0,30.47,NNW,342,0.0,-999.0,34,-99.99,,,0.00,585,weatherlink.com 1.10,2013-01-29 18:54:00,
2013-01-29 11:09:00,60.5,30.0,30.46,NNW,343,0.0,-999.0,31,-99.99,,,0.00,578,weatherlink.com 1.10,2013-01-29 19:09:00,
2013-01-29 11:24:00,61.4,30.0,30.46,NNW,343,0.0,-999.0,31,-99.99,,,0.00,584,weatherlink.com 1.10,2013-01-29 19:24:00,
2013-01-29 11:39:00,61.6,29.0,30.46,NNW,342,0.0,-999.0,29,-99.99,,,0.00,554,weatherlink.com 1.10,2013-01-29 19:39:00,
2013-01-29 11:54:00,62.4,29.0,30.45,NNW,342,0.0,-999.0,28,-99.99,,,0.00,584,weatherlink.com 1.10,2013-01-29 19:54:00,
2013-01-29 12:09:00,62.0,28.0,30.44,NNW,342,1.0,-999.0,28,-99.99,,,0.00,533,weatherlink.com 1.10,2013-01-29 20:09:00,
2013-01-29 12:24:00,62.6,30.0,30.43,NNW,343,0.0,-999.0,29,-99.99,,,0.00,578,weatherlink.com 1.10,2013-01-29 20:24:00,
2013-01-29 12:39:00,63.4,29.0,30.42,NNW,343,0.0,-999.0,27,-99.99,,,0.00,605,weatherlink.com 1.10,2013-01-29 20:39:00,
2013-01-29 12:54:00,64.3,29.0,30.41,NNW,342,0.0,-999.0,26,-99.99,,,0.00,519,weatherlink.com 1.10,2013-01-29 20:54:00,
2013-01-29 13:09:00,64.6,29.0,30.40,NNW,342,0.0,-999.0,26,-99.99,,,0.00,573,weatherlink.com 1.10,2013-01-29 21:09:00,
2013-01-29 13:24:00,64.5,29.0,30.40,NNW,342,0.0,-999.0,26,-99.99,,,0.00,469,weatherlink.com 1.10,2013-01-29 21:24:00,
2013-01-29 13:39:00,64.8,27.0,30.40,NNW,342,0.0,-999.0,24,-99.99,,,0.00,545,weatherlink.com 1.10,2013-01-29 21:39:00,
2013-01-29 13:54:00,65.3,28.0,30.40,NNW,342,0.0,-999.0,25,-99.99,,,0.00,496,weatherlink.com 1.10,2013-01-29 21:54:00,
2013-01-29 14:09:00,65.4,28.0,30.39,NNW,342,0.0,-999.0,24,-99.99,,,0.00,478,weatherlink.com 1.10,2013-01-29 22:09:00,
2013-01-29 14:24:00,66.4,28.0,30.38,NNW,343,0.0,-999.0,24,-99.99,,,0.00,462,weatherlink.com 1.10,2013-01-29 22:24:00,
2013-01-29 14:39:00,67.0,29.0,30.38,NNW,343,0.0,-999.0,24,-99.99,,,0.00,404,weatherlink.com 1.10,2013-01-29 22:39:00,
2013-01-29 14:54:00,67.1,28.0,30.38,NNW,343,0.0,-999.0,23,-99.99,,,0.00,352,weatherlink.com 1.10,2013-01-29 22:54:00,
2013-01-29 15:09:00,67.2,30.0,30.38,NNW,343,0.0,-999.0,25,-99.99,,,0.00,301,weatherlink.com 1.10,2013-01-29 23:09:00,
2013-01-29 15:24:00,67.3,28.0,30.38,NNW,342,0.0,-999.0,23,-99.99,,,0.00,260,weatherlink.com 1.10,2013-01-29 23:24:00,
2013-01-29 15:39:00,67.7,27.0,30.39,NNW,343,0.0,-999.0,22,-99.99,,,0.00,221,weatherlink.com 1.10,2013-01-29 23:39:00,
2013-01-29 15:54:00,67.2,30.0,30.40,NNW,342,0.0,-999.0,25,-99.99,,,0.00,172,weatherlink.com 1.10,2013-01-29 23:54:00,
2013-01-29 16:09:00,65.5,30.0,30.40,NNW,342,0.0,-999.0,26,-99.99,,,0.00,44,weatherlink.com 1.10,2013-01-30 00:09:00,
2013-01-29 16:24:00,64.5,30.0,30.40,NNW,343,0.0,-999.0,27,-99.99,,,0.00,83,weatherlink.com 1.10,2013-01-30 00:24:00,
2013-01-29 16:39:00,64.7,30.0,30.40,NNW,342,0.0,-999.0,27,-99.99,,,0.00,51,weatherlink.com 1.10,2013-01-30 00:39:00,
2013-01-29 16:54:00,64.7,31.0,30.40,NNW,343,0.0,-999.0,28,-99.99,,,0.00,21,weatherlink.com 1.10,2013-01-30 00:54:00,
2013-01-29 17:09:00,63.3,34.0,30.41,NNW,343,0.0,-999.0,33,-99.99,,,0.00,5,weatherlink.com 1.10,2013-01-30 01:09:00,
2013-01-29 17:24:00,61.7,34.0,30.41,NNW,343,0.0,-999.0,35,-99.99,,,0.00,0,weatherlink.com 1.10,2013-01-30 01:24:00,
2013-01-29 17:39:00,59.6,34.0,30.41,NNW,343,0.0,-999.0,38,-99.99,,,0.00,0,weatherlink.com 1.10,2013-01-30 01:39:00,
2013-01-29 17:54:00,58.0,34.0,30.42,NNW,342,0.0,-999.0,41,-99.99,,,0.00,0,weatherlink.com 1.10,2013-01-30 01:54:00,
2013-01-29 18:09:00,57.1,33.0,30.42,NNW,343,0.0,-999.0,41,-99.99,,,0.00,0,weatherlink.com 1.10,2013-01-30 02:09:00,
2013-01-29 18:24:00,56.6,34.0,30.43,NNW,342,0.0,-999.0,42,-99.99,,,0.00,0,weatherlink.com 1.10,2013-01-30 02:24:00,
2013-01-29 18:39:00,56.1,34.0,30.44,NNW,343,0.0,-999.0,44,-99.99,,,0.00,0,weatherlink.com 1.10,2013-01-30 02:39:00,
2013-01-29 18:55:00,55.3,34.0,30.44,NNW,343,0.0,-999.0,45,-99.99,,,0.00,0,weatherlink.com 1.10,2013-01-30 02:55:00,
2013-01-29 19:10:00,54.4,35.0,30.46,NNW,343,0.0,-999.0,48,-99.99,,,0.00,0,weatherlink.com 1.10,2013-01-30 03:10:00,
2013-01-29 19:25:00,53.4,35.0,30.46,NNW,342,0.0,-999.0,50,-99.99,,,0.00,0,weatherlink.com 1.10,2013-01-30 03:25:00,
2013-01-29 19:40:00,52.6,35.0,30.46,NNW,342,0.0,-999.0,52,-99.99,,,0.00,0,weatherlink.com 1.10,2013-01-30 03:40:00,
2013-01-29 19:55:00,51.9,35.0,30.47,NNW,343,0.0,-999.0,53,-99.99,,,0.00,0,weatherlink.com 1.10,2013-01-30 03:55:00,
2013-01-29 20:10:00,51.2,35.0,30.47,NNW,342,0.0,-999.0,55,-99.99,,,0.00,0,weatherlink.com 1.10,2013-01-30 04:10:00,
2013-01-29 20:25:00,50.5,36.0,30.47,NNW,343,0.0,-999.0,57,-99.99,,,0.00,0,weatherlink.com 1.10,2013-01-30 04:25:00,
2013-01-29 20:40:00,49.9,36.0,30.48,NNW,343,0.0,-999.0,59,-99.99,,,0.00,0,weatherlink.com 1.10,2013-01-30 04:40:00,
2013-01-29 20:55:00,49.6,36.0,30.49,NNW,343,0.0,-999.0,61,-99.99,,,0.00,0,weatherlink.com 1.10,2013-01-30 04:55:00,
2013-01-29 21:10:00,49.1,37.0,30.50,NNW,343,0.0,-999.0,63,-99.99,,,0.00,0,weatherlink.com 1.10,2013-01-30 05:10:00,
2013-01-29 21:25:00,48.6,37.0,30.51,NNW,342,0.0,-999.0,64,-99.99,,,0.00,0,weatherlink.com 1.10,2013-01-30 05:25:00,
2013-01-29 21:40:00,48.3,37.0,30.51,NNW,343,0.0,-999.0,65,-99.99,,,0.00,0,weatherlink.com 1.10,2013-01-30 05:40:00,
2013-01-29 21:55:00,48.1,36.0,30.52,NNW,343,0.0,-999.0,63,-99.99,,,0.00,0,weatherlink.com 1.10,2013-01-30 05:55:00,
2013-01-29 22:10:00,48.0,36.0,30.52,NNW,343,0.0,-999.0,64,-99.99,,,0.00,0,weatherlink.com 1.10,2013-01-30 06:10:00,
2013-01-29 22:25:00,47.9,36.0,30.52,NNW,343,0.0,-999.0,64,-99.99,,,0.00,0,weatherlink.com 1.10,2013-01-30 06:25:00,
2013-01-29 22:40:00,47.7,36.0,30.54,NNW,343,0.0,-999.0,65,-99.99,,,0.00,0,weatherlink.com 1.10,2013-01-30 06:40:00,
2013-01-29 22:55:00,47.6,37.0,30.54,NNW,342,0.0,-999.0,66,-99.99,,,0.00,0,weatherlink.com 1.10,2013-01-30 06:55:00,
2013-01-29 23:10:00,47.5,37.0,30.54,NNW,342,0.0,-999.0,66,-99.99,,,0.00,0,weatherlink.com 1.10,2013-01-30 07:10:00,
2013-01-29 23:25:00,47.3,36.0,30.54,NNW,343,0.0,-999.0,66,-99.99,,,0.00,0,weatherlink.com 1.10,2013-01-30 07:25:00,
2013-01-29 23:40:00,46.7,37.0,30.55,NNW,342,0.0,-999.0,68,-99.99,,,0.00,0,weatherlink.com 1.10,2013-01-30 07:40:00,
2013-01-29 23:55:00,46.8,37.0,30.55,NNW,343,0.0,-999.0,68,-99.99,,,0.00,0,weatherlink.com 1.10,2013-01-30 07:55:00,